createdAt,value
2023-04-02T00:01:44.508Z,82.87
2023-04-02T00:05:34.943Z,82.60
2023-04-02T00:08:44.888Z,82.26
2023-04-02T00:11:56.769Z,82.02
2023-04-02T00:15:05.476Z,82.63
2023-04-02T00:18:20.343Z,82.85
2023-04-02T00:21:38.793Z,83.21
2023-04-02T00:24:53.783Z,83.59
2023-04-02T00:28:06.164Z,82.88
2023-04-02T00:31:16.404Z,82.70
2023-04-02T00:34:29.124Z,83.76
2023-04-02T00:37:39.483Z,82.83
2023-04-02T00:40:50.739Z,82.54
2023-04-02T00:43:59.098Z,83.28
2023-04-02T00:47:23.304Z,83.70
2023-04-02T00:50:38.695Z,83.00
2023-04-02T00:53:50.570Z,82.91
2023-04-02T00:57:01.653Z,83.64
2023-04-02T01:00:27.045Z,83.48
2023-04-02T01:03:45.257Z,84.24
2023-04-02T01:06:53.806Z,82.76
2023-04-02T01:10:27.340Z,82.94
2023-04-02T01:13:45.437Z,83.22
2023-04-02T01:17:06.360Z,83.29
2023-04-02T01:20:55.324Z,82.88
2023-04-02T01:24:09.010Z,83.39
2023-04-02T01:27:28.996Z,83.70
2023-04-02T01:30:41.894Z,83.39
2023-04-02T01:33:48.245Z,83.65
2023-04-02T01:37:22.600Z,84.04
2023-04-02T01:40:50.789Z,84.19
2023-04-02T01:44:12.409Z,84.11
2023-04-02T01:47:32.111Z,84.01
2023-04-02T01:50:42.520Z,83.65
2023-04-02T01:53:48.770Z,84.08
2023-04-02T01:56:56.193Z,83.35
2023-04-02T02:00:20.422Z,83.61
2023-04-02T02:03:38.699Z,83.37
2023-04-02T02:06:46.406Z,83.66
2023-04-02T02:09:56.512Z,83.92
2023-04-02T02:13:09.448Z,84.02
2023-04-02T02:16:30.301Z,84.43
2023-04-02T02:19:46.607Z,84.35
2023-04-02T02:22:55.690Z,84.47
2023-04-02T02:26:02.368Z,83.29
2023-04-02T02:29:21.850Z,83.58
2023-04-02T02:32:35.385Z,83.54
2023-04-02T02:35:56.424Z,83.73
2023-04-02T02:39:27.172Z,83.74
2023-04-02T02:42:41.924Z,84.19
2023-04-02T02:45:51.994Z,83.37
2023-04-02T02:49:04.644Z,83.04
2023-04-02T02:52:22.454Z,83.10
2023-04-02T02:55:43.483Z,83.21
2023-04-02T02:58:58.431Z,83.67
2023-04-02T03:02:21.557Z,83.41
2023-04-02T03:05:31.664Z,83.78
2023-04-02T03:08:59.239Z,83.40
2023-04-02T03:12:39.047Z,83.99
2023-04-02T03:16:05.189Z,84.17
2023-04-02T03:19:31.547Z,83.95
2023-04-02T03:22:49.650Z,84.55
2023-04-02T03:26:11.764Z,84.87
2023-04-02T03:29:33.400Z,84.62
2023-04-02T03:32:46.555Z,84.55
2023-04-02T03:36:08.289Z,84.76
2023-04-02T03:39:29.339Z,84.46
2023-04-02T03:42:52.572Z,84.29
2023-04-02T03:46:21.711Z,84.35
2023-04-02T03:49:39.677Z,83.67
2023-04-02T03:52:46.622Z,84.54
2023-04-02T03:55:58.235Z,84.15
2023-04-02T03:59:25.069Z,84.58
2023-04-02T04:02:52.530Z,84.55
2023-04-02T04:06:08.040Z,85.08
2023-04-02T04:09:30.060Z,85.83
2023-04-02T04:12:43.811Z,85.90
2023-04-02T04:16:06.664Z,85.67
2023-04-02T04:19:25.656Z,85.39
2023-04-02T04:22:34.298Z,85.08
2023-04-02T04:26:05.796Z,84.99
2023-04-02T04:29:35.098Z,85.19
2023-04-02T04:32:58.753Z,85.49
2023-04-02T04:36:09.373Z,85.75
2023-04-02T04:39:30.002Z,85.78
2023-04-02T04:42:46.494Z,85.37
2023-04-02T04:46:08.701Z,85.88
2023-04-02T04:49:30.584Z,86.26
2023-04-02T04:52:42.421Z,86.34
2023-04-02T04:55:53.641Z,85.64
2023-04-02T04:59:09.491Z,85.73
2023-04-02T05:02:36.486Z,85.20
2023-04-02T05:05:50.758Z,85.57
2023-04-02T05:09:21.496Z,84.93
2023-04-02T05:12:43.336Z,85.26
2023-04-02T05:16:08.162Z,85.53
2023-04-02T05:19:26.586Z,85.30
2023-04-02T05:22:47.547Z,85.87
2023-04-02T05:26:03.122Z,86.42
2023-04-02T05:29:22.320Z,86.83
2023-04-02T05:32:39.941Z,87.25
2023-04-02T05:35:57.466Z,87.16
2023-04-02T05:39:19.329Z,87.57
2023-04-02T05:42:41.186Z,86.72
2023-04-02T05:46:01.431Z,86.66
2023-04-02T05:49:21.187Z,86.43
2023-04-02T05:52:37.371Z,85.42
2023-04-02T05:56:00.073Z,84.84
2023-04-02T05:59:25.350Z,85.03
2023-04-02T06:02:43.547Z,85.43
2023-04-02T06:05:55.497Z,85.87
2023-04-02T06:09:14.790Z,86.63
2023-04-02T06:12:38.266Z,85.36
2023-04-02T06:15:47.984Z,85.85
2023-04-02T06:19:03.076Z,85.05
2023-04-02T06:22:27.603Z,84.23
2023-04-02T06:25:45.861Z,85.88
2023-04-02T06:29:08.071Z,85.97
2023-04-02T06:32:16.186Z,86.06
2023-04-02T06:35:40.201Z,85.43
2023-04-02T06:38:50.239Z,85.20
2023-04-02T06:42:19.184Z,86.15
2023-04-02T06:46:01.181Z,86.50
2023-04-02T06:49:29.279Z,86.62
2023-04-02T06:52:49.735Z,88.30
2023-04-02T06:56:07.293Z,88.63
2023-04-02T06:59:16.002Z,88.33
2023-04-02T07:02:40.428Z,86.96
2023-04-02T07:05:53.173Z,86.25
2023-04-02T07:09:00.472Z,85.90
2023-04-02T07:12:15.786Z,86.68
2023-04-02T07:15:24.862Z,86.23
2023-04-02T07:18:36.858Z,86.44
2023-04-02T07:21:53.032Z,86.09
2023-04-02T07:25:01.090Z,85.97
2023-04-02T07:28:19.147Z,85.82
2023-04-02T07:31:32.882Z,86.23
2023-04-02T07:34:43.012Z,86.34
2023-04-02T07:37:49.286Z,86.70
2023-04-02T07:40:56.867Z,87.39
2023-04-02T07:44:03.440Z,87.38
2023-04-02T07:47:10.961Z,87.38
2023-04-02T07:50:20.124Z,87.85
2023-04-02T07:53:33.430Z,87.86
2023-04-02T07:56:40.901Z,87.24
2023-04-02T07:59:47.848Z,86.71
2023-04-02T08:02:54.905Z,86.44
2023-04-02T08:06:04.864Z,85.25
2023-04-02T08:09:11.100Z,85.10
2023-04-02T08:12:18.795Z,84.80
2023-04-02T08:15:25.031Z,85.38
2023-04-02T08:18:32.426Z,85.14
2023-04-02T08:21:41.073Z,86.10
2023-04-02T08:24:48.010Z,86.09
2023-04-02T08:27:54.504Z,86.02
2023-04-02T08:31:01.756Z,85.88
2023-04-02T08:34:09.584Z,86.23
2023-04-02T08:37:19.229Z,86.68
2023-04-02T08:40:36.673Z,85.69
2023-04-02T08:44:21.645Z,86.13
2023-04-02T08:47:43.984Z,85.95
2023-04-02T08:51:18.296Z,85.92
2023-04-02T08:54:32.853Z,86.70
2023-04-02T08:57:54.890Z,86.06
2023-04-02T09:01:09.059Z,85.59
2023-04-02T09:04:26.234Z,84.22
2023-04-02T09:07:34.185Z,84.39
2023-04-02T09:10:54.113Z,84.50
2023-04-02T09:14:08.829Z,83.52
2023-04-02T09:17:23.871Z,83.78
2023-04-02T09:20:31.764Z,83.75
2023-04-02T09:23:38.967Z,83.40
2023-04-02T09:26:47.711Z,83.62
2023-04-02T09:30:08.640Z,83.96
2023-04-02T09:33:14.899Z,84.86
2023-04-02T09:36:38.863Z,85.17
2023-04-02T09:39:45.566Z,84.61
2023-04-02T09:43:15.154Z,85.12
2023-04-02T09:46:27.714Z,85.07
2023-04-02T09:49:38.919Z,85.72
2023-04-02T09:52:45.200Z,85.87
2023-04-02T09:55:52.084Z,86.21
2023-04-02T09:59:25.357Z,86.90
2023-04-02T10:02:33.896Z,87.01
2023-04-02T10:05:41.504Z,87.32
2023-04-02T10:08:49.895Z,87.63
2023-04-02T10:12:00.592Z,87.92
2023-04-02T10:15:30.661Z,87.80
2023-04-02T10:18:54.693Z,88.13
2023-04-02T10:22:18.868Z,88.14
2023-04-02T10:25:44.387Z,87.77
2023-04-02T10:29:19.470Z,87.72
2023-04-02T10:32:40.407Z,87.88
2023-04-02T10:36:05.471Z,87.64
2023-04-02T10:39:39.571Z,87.50
2023-04-02T10:43:05.121Z,88.25
2023-04-02T10:46:31.392Z,88.38
2023-04-02T10:49:53.920Z,87.73
2023-04-02T10:53:12.452Z,86.60
2023-04-02T10:56:20.084Z,86.86
2023-04-02T10:59:40.616Z,86.48
2023-04-02T11:03:01.561Z,85.79
2023-04-02T11:06:26.198Z,85.55
2023-04-02T11:09:44.500Z,85.23
2023-04-02T11:13:02.597Z,85.39
2023-04-02T11:16:10.833Z,85.09
2023-04-02T11:19:31.539Z,84.54
2023-04-02T11:22:41.827Z,85.45
2023-04-02T11:25:50.703Z,85.20
2023-04-02T11:29:24.405Z,85.48
2023-04-02T11:32:43.521Z,85.54
2023-04-02T11:35:50.582Z,85.23
2023-04-02T11:39:04.622Z,84.20
2023-04-02T11:42:37.089Z,83.71
2023-04-02T11:45:59.950Z,83.78
2023-04-02T11:49:44.482Z,84.09
2023-04-02T11:52:57.691Z,83.62
2023-04-02T11:56:24.964Z,83.91
2023-04-02T11:59:49.271Z,83.74
2023-04-02T12:03:32.858Z,84.53
2023-04-02T12:07:02.555Z,84.59
2023-04-02T12:10:24.334Z,84.76
2023-04-02T12:13:59.097Z,84.51
2023-04-02T12:17:24.641Z,83.95
2023-04-02T12:20:36.045Z,84.48
2023-04-02T12:23:43.884Z,83.00
2023-04-02T12:26:50.145Z,81.87
2023-04-02T12:30:17.645Z,82.27
2023-04-02T12:33:37.570Z,82.67
2023-04-02T12:37:09.622Z,82.28
2023-04-02T12:40:22.686Z,81.22
2023-04-02T12:43:32.142Z,81.16
2023-04-02T12:46:43.543Z,81.39
2023-04-02T12:49:53.357Z,81.71
2023-04-02T12:53:01.284Z,81.89
2023-04-02T12:56:27.607Z,82.68
2023-04-02T12:59:39.476Z,81.58
2023-04-02T13:03:22.807Z,81.47
2023-04-02T13:06:34.369Z,81.44
2023-04-02T13:09:51.855Z,81.12
2023-04-02T13:13:01.012Z,80.73
2023-04-02T13:16:28.179Z,79.66
2023-04-02T13:19:38.067Z,79.57
2023-04-02T13:22:45.310Z,79.87
2023-04-02T13:25:52.054Z,79.63
2023-04-02T13:29:07.035Z,80.08
2023-04-02T13:32:16.784Z,78.86
2023-04-02T13:35:27.498Z,79.04
2023-04-02T13:38:38.537Z,79.41
2023-04-02T13:42:02.923Z,78.57
2023-04-02T13:45:28.505Z,79.45
2023-04-02T13:48:35.587Z,78.88
2023-04-02T13:51:49.353Z,78.47
2023-04-02T13:55:01.739Z,79.02
2023-04-02T13:58:09.172Z,79.18
2023-04-02T14:01:19.776Z,79.83
2023-04-02T14:04:35.204Z,79.52
2023-04-02T14:08:09.266Z,79.70
2023-04-02T14:11:43.165Z,79.96
2023-04-02T14:15:16.036Z,80.11
2023-04-02T14:18:58.979Z,80.03
2023-04-02T14:22:29.179Z,78.63
2023-04-02T14:25:51.671Z,78.48
2023-04-02T14:29:10.949Z,78.27
2023-04-02T14:32:29.045Z,77.24
2023-04-02T14:35:45.256Z,77.21
2023-04-02T14:39:05.212Z,77.87
2023-04-02T14:42:23.928Z,78.29
2023-04-02T14:45:52.098Z,78.29
2023-04-02T14:49:10.179Z,78.82
2023-04-02T14:52:23.094Z,79.09
2023-04-02T14:55:40.417Z,77.97
2023-04-02T14:58:58.303Z,77.92
2023-04-02T15:02:17.203Z,77.82
2023-04-02T15:05:31.277Z,77.81
2023-04-02T15:09:02.198Z,77.68
2023-04-02T15:12:26.888Z,78.15
2023-04-02T15:15:49.829Z,78.66
2023-04-02T15:19:00.330Z,78.34
2023-04-02T15:22:31.205Z,78.53
2023-04-02T15:25:51.726Z,77.74
2023-04-02T15:29:27.805Z,77.21
2023-04-02T15:32:43.804Z,77.04
2023-04-02T15:36:01.846Z,76.90
2023-04-02T15:39:48.052Z,75.43
2023-04-02T15:43:08.043Z,75.25
2023-04-02T15:46:29.463Z,74.97
2023-04-02T15:49:46.656Z,75.63
2023-04-02T15:53:11.357Z,75.29
2023-04-02T15:56:31.688Z,75.56
2023-04-02T16:00:16.155Z,75.20
2023-04-02T16:03:47.667Z,74.89
2023-04-02T16:07:33.645Z,75.01
2023-04-02T16:10:45.412Z,74.23
2023-04-02T16:13:51.791Z,73.58
2023-04-02T16:17:17.678Z,73.12
2023-04-02T16:20:34.960Z,73.47
2023-04-02T16:23:45.953Z,74.02
2023-04-02T16:27:12.014Z,74.95
2023-04-02T16:30:44.483Z,75.13
2023-04-02T16:34:06.348Z,74.88
2023-04-02T16:37:30.334Z,74.93
2023-04-02T16:41:00.495Z,74.21
2023-04-02T16:44:35.424Z,74.74
2023-04-02T16:48:03.259Z,74.96
2023-04-02T16:51:23.655Z,75.42
2023-04-02T16:54:46.801Z,75.86
2023-04-02T16:58:17.344Z,77.02
2023-04-02T17:01:39.224Z,77.71
2023-04-02T17:05:14.646Z,78.10
2023-04-02T17:08:28.287Z,78.98
2023-04-02T17:11:45.968Z,81.04
2023-04-02T17:15:02.664Z,81.72
2023-04-02T17:18:21.602Z,82.12
2023-04-02T17:21:31.012Z,83.04
2023-04-02T17:24:47.728Z,83.66
2023-04-02T17:27:59.548Z,83.31
2023-04-02T17:31:20.948Z,83.84
2023-04-02T17:34:27.138Z,83.97
2023-04-02T17:37:47.141Z,84.07
2023-04-02T17:41:05.862Z,84.40
2023-04-02T17:44:41.559Z,84.44
2023-04-02T17:48:06.162Z,85.26
2023-04-02T17:51:30.668Z,85.80
2023-04-02T17:54:56.470Z,85.70
2023-04-02T17:58:24.648Z,85.65
2023-04-02T18:01:39.869Z,85.73
2023-04-02T18:05:10.080Z,86.00
2023-04-02T18:08:29.982Z,85.69
2023-04-02T18:11:55.376Z,85.65
2023-04-02T18:15:42.980Z,85.32
2023-04-02T18:19:13.994Z,85.29
2023-04-02T18:22:37.755Z,85.18
2023-04-02T18:25:59.461Z,84.44
2023-04-02T18:29:30.422Z,84.34
2023-04-02T18:33:10.774Z,83.89
2023-04-02T18:36:28.829Z,83.21
2023-04-02T18:40:01.438Z,83.52
2023-04-02T18:43:30.946Z,83.42
2023-04-02T18:46:52.660Z,83.32
2023-04-02T18:50:20.275Z,83.00
2023-04-02T18:53:32.425Z,83.12
2023-04-02T18:56:43.395Z,83.10
2023-04-02T19:00:00.510Z,83.32
2023-04-02T19:03:22.613Z,83.21
2023-04-02T19:06:39.305Z,82.75
2023-04-02T19:09:51.018Z,82.95
2023-04-02T19:13:00.815Z,83.54
2023-04-02T19:16:43.865Z,83.56
2023-04-02T19:20:11.153Z,83.35
2023-04-02T19:23:46.868Z,83.16
2023-04-02T19:27:05.642Z,82.58
2023-04-02T19:31:01.510Z,83.13
2023-04-02T19:34:28.003Z,83.21
2023-04-02T19:37:45.128Z,83.35
2023-04-02T19:41:04.058Z,82.96
2023-04-02T19:44:14.679Z,82.71
2023-04-02T19:47:25.878Z,82.36
2023-04-02T19:50:32.686Z,82.77
2023-04-02T19:53:39.609Z,82.52
2023-04-02T19:56:45.867Z,82.58
2023-04-02T19:59:52.979Z,82.34
2023-04-02T20:03:01.782Z,82.68
2023-04-02T20:06:08.961Z,81.82
2023-04-02T20:09:15.037Z,81.71
2023-04-02T20:12:22.014Z,81.45
2023-04-02T20:15:28.179Z,81.58
2023-04-02T20:18:38.390Z,81.55
2023-04-02T20:21:44.431Z,80.90
2023-04-02T20:24:51.373Z,80.94
2023-04-02T20:27:57.445Z,81.06
2023-04-02T20:31:14.103Z,80.64
2023-04-02T20:34:22.966Z,80.58
2023-04-02T20:37:30.448Z,80.43
2023-04-02T20:40:37.176Z,79.91
2023-04-02T20:43:44.215Z,80.06
2023-04-02T20:46:50.253Z,79.81
2023-04-02T20:49:59.712Z,79.89
2023-04-02T20:53:08.600Z,79.55
2023-04-02T20:56:19.764Z,79.71
2023-04-02T20:59:25.824Z,80.18
2023-04-02T21:02:33.545Z,80.55
2023-04-02T21:05:46.763Z,80.79
2023-04-02T21:08:54.471Z,81.00
2023-04-02T21:12:00.573Z,81.08
2023-04-02T21:15:08.371Z,81.32
2023-04-02T21:18:16.538Z,81.08
2023-04-02T21:21:31.739Z,81.26
2023-04-02T21:24:37.740Z,80.87
2023-04-02T21:27:44.551Z,80.56
2023-04-02T21:30:50.616Z,80.23
2023-04-02T21:34:09.738Z,79.82
2023-04-02T21:37:21.036Z,79.79
2023-04-02T21:40:27.856Z,79.28
2023-04-02T21:43:33.810Z,79.42
2023-04-02T21:46:43.476Z,79.68
2023-04-02T21:49:49.690Z,79.72
2023-04-02T21:52:59.175Z,79.98
2023-04-02T21:56:18.746Z,79.55
2023-04-02T21:59:29.212Z,79.20
2023-04-02T22:02:38.697Z,79.19
2023-04-02T22:06:09.745Z,79.48
2023-04-02T22:09:22.062Z,79.28
2023-04-02T22:12:28.967Z,78.73
2023-04-02T22:15:35.761Z,79.10
2023-04-02T22:18:46.558Z,79.08
2023-04-02T22:21:53.417Z,78.96
2023-04-02T22:25:03.540Z,79.03
2023-04-02T22:28:09.729Z,79.29
2023-04-02T22:31:25.229Z,79.16
2023-04-02T22:34:31.639Z,79.64
2023-04-02T22:37:38.405Z,79.11
2023-04-02T22:40:47.028Z,79.08
2023-04-02T22:43:53.894Z,78.33
2023-04-02T22:46:59.865Z,79.39
2023-04-02T22:50:09.208Z,79.76
2023-04-02T22:53:17.322Z,79.62
2023-04-02T22:56:32.406Z,79.61
2023-04-02T22:59:38.562Z,79.80
2023-04-02T23:02:46.931Z,80.15
2023-04-02T23:06:08.386Z,80.93
2023-04-02T23:09:18.257Z,80.74
2023-04-02T23:12:26.985Z,80.90
2023-04-02T23:15:33.824Z,80.82
2023-04-02T23:18:41.909Z,80.72
2023-04-02T23:21:48.975Z,80.13
2023-04-02T23:24:55.022Z,80.23
2023-04-02T23:28:04.829Z,79.54
2023-04-02T23:31:16.199Z,79.57
2023-04-02T23:34:22.986Z,79.53
2023-04-02T23:37:31.652Z,79.06
2023-04-02T23:40:38.457Z,78.89
2023-04-02T23:43:47.539Z,78.64
2023-04-02T23:46:54.996Z,78.34
2023-04-02T23:50:01.174Z,78.85
2023-04-02T23:53:08.005Z,78.38
2023-04-02T23:56:14.669Z,78.70
2023-04-02T23:59:24.041Z,78.20
